Time;durP1;ratioP1;P1;durP2;ratioP2;P2;SDS_P1;SDS_P2;PMS_P1;PMS_P2;Temp;Humidity;BMP_temperature;BMP_pressure;BME280_temperature;BME280_humidity;BME280_pressure;Samples;Min_cycle;Max_cycle;Signal;HPM_P1;HPM_P2
2024/01/24 00:01:39;;;;;;;2.28;1.08;;;;;;;5.96;100.00;100209.53;4936119;29;20634;-44
2024/01/24 00:04:06;;;;;;;1.30;1.20;;;;;;;6.03;100.00;100200.44;4936431;29;20275;-42
2024/01/24 00:06:31;;;;;;;1.08;1.08;;;;;;;6.02;100.00;100197.84;4936661;29;20634;-42
2024/01/24 00:08:57;;;;;;;1.63;1.52;;;;;;;6.07;100.00;100190.59;4936397;29;20244;-41
2024/01/24 00:11:22;;;;;;;1.25;1.20;;;;;;;6.09;100.00;100197.59;4936562;29;20584;-43
2024/01/24 00:13:48;;;;;;;1.75;1.35;;;;;;;6.11;100.00;100210.88;4936503;29;20167;-41
2024/01/24 00:16:13;;;;;;;1.33;1.23;;;;;;;6.13;100.00;100204.56;4936119;29;20195;-42
2024/01/24 00:18:39;;;;;;;2.55;1.10;;;;;;;6.14;100.00;100208.09;4936541;29;20187;-41
2024/01/24 00:21:04;;;;;;;1.13;1.10;;;;;;;6.14;100.00;100214.31;4935118;29;20219;-44
2024/01/24 00:23:30;;;;;;;1.38;1.27;;;;;;;6.23;100.00;100198.97;4936110;29;20176;-42
2024/01/24 00:25:55;;;;;;;1.40;1.30;;;;;;;6.25;100.00;100178.50;4935126;29;20310;-43
2024/01/24 00:28:26;;;;;;;2.53;1.27;;;;;;;6.24;100.00;100185.63;4936206;29;20184;-43
2024/01/24 00:30:51;;;;;;;1.30;1.20;;;;;;;6.28;100.00;100167.78;4936148;29;20199;-41
2024/01/24 00:33:17;;;;;;;1.73;1.13;;;;;;;6.31;100.00;100141.94;4936038;29;20171;-39
2024/01/24 00:35:43;;;;;;;1.50;1.40;;;;;;;6.37;100.00;100146.22;4936474;29;20208;-41
2024/01/24 00:38:08;;;;;;;1.52;1.20;;;;;;;6.42;100.00;100138.09;4935045;29;20179;-44
2024/01/24 00:40:34;;;;;;;1.00;0.98;;;;;;;6.41;100.00;100150.53;4936012;29;20278;-43
2024/01/24 00:43:00;;;;;;;1.20;1.20;;;;;;;6.44;100.00;100142.44;4934682;29;20191;-41
2024/01/24 00:45:25;;;;;;;1.90;1.50;;;;;;;6.49;100.00;100151.13;4935620;29;20594;-42
2024/01/24 00:47:51;;;;;;;1.30;1.30;;;;;;;6.52;100.00;100129.75;4936032;29;20172;-43
2024/01/24 00:50:16;;;;;;;1.77;1.23;;;;;;;6.57;100.00;100132.25;4935879;29;20573;-43
2024/01/24 00:52:42;;;;;;;1.60;1.35;;;;;;;6.65;100.00;100122.22;4935820;29;20159;-41
2024/01/24 00:55:07;;;;;;;1.55;1.45;;;;;;;6.73;100.00;100132.59;4935677;29;20207;-42
2024/01/24 00:57:33;;;;;;;1.33;1.23;;;;;;;6.78;100.00;100125.34;4935688;29;20175;-40
2024/01/24 00:59:58;;;;;;;2.58;1.42;;;;;;;6.83;100.00;100127.88;4935604;29;20255;-43
2024/01/24 01:02:24;;;;;;;1.38;1.27;;;;;;;6.85;100.00;100118.03;4935776;29;20219;-46
2024/01/24 01:04:49;;;;;;;1.30;1.20;;;;;;;6.93;100.00;100122.16;4935519;29;20186;-41
2024/01/24 01:07:15;;;;;;;1.40;1.30;;;;;;;6.95;100.00;100106.13;4935422;29;20184;-41
2024/01/24 01:09:40;;;;;;;1.52;1.42;;;;;;;7.08;100.00;100095.91;4935306;29;20172;-41
2024/01/24 01:12:06;;;;;;;1.80;1.70;;;;;;;7.19;100.00;100097.28;4934150;29;20640;-41
2024/01/24 01:14:31;;;;;;;3.17;1.50;;;;;;;7.26;100.00;100083.72;4934598;29;20223;-39
2024/01/24 01:16:57;;;;;;;2.00;1.65;;;;;;;7.34;100.00;100094.97;4935176;29;20195;-39
2024/01/24 01:19:22;;;;;;;1.85;1.75;;;;;;;7.45;100.00;100078.56;4935349;29;20630;-41
2024/01/24 01:21:48;;;;;;;2.50;1.98;;;;;;;7.55;100.00;100085.31;4935315;29;20567;-39
2024/01/24 01:24:13;;;;;;;2.10;1.83;;;;;;;7.67;100.00;100063.50;4935621;29;20210;-37
2024/01/24 01:26:39;;;;;;;2.00;1.83;;;;;;;7.91;100.00;100063.47;4935154;29;20253;-41
2024/01/24 01:29:05;;;;;;;2.30;1.70;;;;;;;7.90;100.00;100064.41;4934805;29;20168;-41
2024/01/24 01:31:30;;;;;;;2.13;1.60;;;;;;;8.02;100.00;100056.81;4933600;29;20278;-42
2024/01/24 01:33:56;;;;;;;5.43;1.52;;;;;;;8.01;100.00;100063.06;4934811;29;20167;-43
2024/01/24 01:36:28;;;;;;;1.60;1.48;;;;;;;8.11;100.00;100060.91;5030081;28;20568;-43
2024/01/24 01:38:54;;;;;;;1.60;1.50;;;;;;;8.26;100.00;100067.38;5028768;28;20198;-43
2024/01/24 01:41:19;;;;;;;1.73;1.63;;;;;;;8.30;100.00;100084.16;5028874;28;20190;-43
2024/01/24 01:43:45;;;;;;;1.30;1.20;;;;;;;8.38;100.00;100072.22;5028384;28;20234;-43
2024/01/24 01:46:19;;;;;;;1.38;1.30;;;;;;;8.54;100.00;100043.13;5028337;28;20204;-42
2024/01/24 01:48:45;;;;;;;1.08;1.08;;;;;;;8.60;100.00;100055.34;5028477;28;20197;-41
2024/01/24 01:51:11;;;;;;;2.88;1.30;;;;;;;8.63;100.00;100060.56;5028363;28;20554;-43
2024/01/24 01:53:38;;;;;;;1.50;1.27;;;;;;;8.71;100.00;100055.75;5028211;28;20184;-44
2024/01/24 01:56:08;;;;;;;1.50;1.10;;;;;;;8.83;100.00;100063.25;5028159;28;20643;-41
2024/01/24 01:58:33;;;;;;;1.02;1.02;;;;;;;8.82;100.00;100076.66;5028113;28;20181;-41
2024/01/24 02:00:59;;;;;;;1.33;0.98;;;;;;;8.85;100.00;100073.84;5028206;28;20183;-41
2024/01/24 02:03:28;;;;;;;1.05;0.95;;;;;;;8.96;100.00;100065.38;5010742;28;20176;-43
2024/01/24 02:05:54;;;;;;;2.13;1.00;;;;;;;8.93;100.00;100058.34;5028077;28;20215;-41
2024/01/24 02:08:19;;;;;;;1.55;0.93;;;;;;;8.97;100.00;100059.97;5028181;28;20211;-44
2024/01/24 02:10:45;;;;;;;3.03;0.80;;;;;;;9.00;100.00;100046.47;5028012;28;20200;-41
2024/01/24 02:13:11;;;;;;;1.38;1.02;;;;;;;9.06;100.00;100064.03;5026674;28;20694;-44
2024/01/24 02:15:37;;;;;;;2.05;0.80;;;;;;;9.07;100.00;100052.41;5027901;28;20698;-43
2024/01/24 02:18:03;;;;;;;0.70;0.70;;;;;;;9.01;100.00;100058.91;5028088;28;20186;-40
2024/01/24 02:20:31;;;;;;;1.20;0.60;;;;;;;9.05;100.00;100044.47;5027900;28;20177;-41
2024/01/24 02:22:57;;;;;;;3.38;0.73;;;;;;;9.14;100.00;100053.00;5027780;28;20270;-42
2024/01/24 02:25:22;;;;;;;1.90;0.60;;;;;;;9.11;100.00;100053.13;5028018;28;20227;-42
2024/01/24 02:27:48;;;;;;;1.45;0.70;;;;;;;9.06;100.00;100043.53;5027985;28;20184;-43
2024/01/24 02:30:14;;;;;;;3.83;0.90;;;;;;;9.14;100.00;100028.94;5027874;28;20175;-42
2024/01/24 02:32:40;;;;;;;0.65;0.52;;;;;;;9.17;100.00;100031.50;5027586;28;20176;-42
2024/01/24 02:35:06;;;;;;;2.85;0.73;;;;;;;9.15;100.00;100026.19;5027723;28;20585;-42
2024/01/24 02:37:31;;;;;;;4.32;0.70;;;;;;;9.21;100.00;100027.75;5027724;28;20184;-40
2024/01/24 02:39:57;;;;;;;4.18;0.93;;;;;;;9.13;100.00;100028.06;5028149;28;20658;-40
2024/01/24 02:42:22;;;;;;;3.42;1.25;;;;;;;9.20;100.00;100024.19;5028174;28;20630;-39
2024/01/24 02:44:48;;;;;;;3.28;1.20;;;;;;;9.30;100.00;100031.81;5028087;28;20168;-44
2024/01/24 02:47:13;;;;;;;3.63;1.05;;;;;;;9.36;100.00;100020.81;5017745;28;20639;-40
2024/01/24 02:49:39;;;;;;;6.57;1.48;;;;;;;9.40;100.00;100017.94;5013980;28;20608;-40
2024/01/24 02:52:05;;;;;;;9.98;2.30;;;;;;;9.52;100.00;100010.28;5012812;28;20164;-42
2024/01/24 02:54:30;;;;;;;13.57;2.40;;;;;;;9.50;100.00;99991.63;5012814;28;20228;-42
2024/01/24 02:56:56;;;;;;;13.35;2.78;;;;;;;9.48;100.00;99994.38;5014119;28;20272;-41
2024/01/24 02:59:21;;;;;;;13.00;3.00;;;;;;;9.61;100.00;99994.66;5014444;28;20183;-40
2024/01/24 03:01:47;;;;;;;14.00;2.90;;;;;;;9.58;100.00;99978.78;5014396;28;20172;-39
2024/01/24 03:04:13;;;;;;;7.63;1.98;;;;;;;9.62;100.00;99975.00;5014223;28;20212;-41
2024/01/24 03:06:40;;;;;;;10.30;2.40;;;;;;;9.68;100.00;99976.50;5013954;28;20275;-44
2024/01/24 03:09:05;;;;;;;9.38;1.95;;;;;;;9.63;100.00;99975.88;5012682;28;20236;-41
2024/01/24 03:11:30;;;;;;;8.98;2.10;;;;;;;9.78;100.00;99972.47;5013868;28;20283;-42
2024/01/24 03:13:56;;;;;;;12.25;2.63;;;;;;;9.78;100.00;99983.16;5014008;28;20181;-41
2024/01/24 03:16:21;;;;;;;13.88;3.20;;;;;;;9.69;100.00;99944.34;5014372;28;20232;-39
2024/01/24 03:18:47;;;;;;;16.42;2.42;;;;;;;9.72;100.00;99943.31;5014101;28;20226;-42
2024/01/24 03:21:17;;;;;;;12.43;2.35;;;;;;;9.72;100.00;99918.41;5012420;28;20640;-39
2024/01/24 03:23:43;;;;;;;8.70;1.85;;;;;;;9.75;100.00;99948.53;5013756;28;20666;-40
2024/01/24 03:26:09;;;;;;;18.02;2.70;;;;;;;9.78;100.00;99945.69;5013670;28;20181;-40
2024/01/24 03:28:34;;;;;;;16.17;2.55;;;;;;;9.73;100.00;99985.19;5013758;28;20173;-41
2024/01/24 03:31:01;;;;;;;11.70;2.50;;;;;;;9.76;100.00;99949.41;5013682;28;20226;-40
2024/01/24 03:33:27;;;;;;;13.77;2.90;;;;;;;9.71;100.00;99938.94;5013549;28;20180;-40
2024/01/24 03:35:53;;;;;;;13.23;2.70;;;;;;;9.66;100.00;99920.44;5013332;28;20204;-41
2024/01/24 03:38:19;;;;;;;13.35;2.25;;;;;;;9.79;100.00;99931.38;5013497;28;20252;-43
2024/01/24 03:40:45;;;;;;;13.82;2.63;;;;;;;9.61;100.00;99926.94;5013452;28;20240;-44
2024/01/24 03:43:11;;;;;;;17.15;3.28;;;;;;;9.64;100.00;99940.16;5013582;28;20224;-43
2024/01/24 03:45:39;;;;;;;13.63;2.72;;;;;;;9.61;100.00;99927.78;5013520;28;20203;-42
2024/01/24 03:48:06;;;;;;;19.73;2.75;;;;;;;9.62;100.00;99924.19;5013423;28;20173;-41
2024/01/24 03:50:32;;;;;;;19.25;2.90;;;;;;;9.57;100.00;99936.03;5013471;28;20203;-39
2024/01/24 03:52:58;;;;;;;22.30;3.80;;;;;;;9.54;100.00;99914.81;5013309;28;20252;-41
2024/01/24 03:55:23;;;;;;;12.80;3.13;;;;;;;9.57;100.00;99931.56;5011490;28;20203;-40
2024/01/24 03:57:49;;;;;;;18.80;2.65;;;;;;;9.63;100.00;99919.72;5012422;28;20183;-41
2024/01/24 04:00:16;;;;;;;15.45;3.13;;;;;;;9.55;100.00;99903.16;5013253;28;20180;-42
2024/01/24 04:02:41;;;;;;;16.85;3.30;;;;;;;9.54;100.00;99946.91;5013163;28;20179;-40
2024/01/24 04:05:07;;;;;;;18.45;3.10;;;;;;;9.49;100.00;99934.63;5012944;28;20184;-43
2024/01/24 04:07:33;;;;;;;18.20;2.58;;;;;;;9.56;100.00;99931.66;5012976;28;20177;-42
2024/01/24 04:09:59;;;;;;;19.90;3.75;;;;;;;9.64;100.00;99946.38;5013401;28;20553;-44
2024/01/24 04:12:25;;;;;;;20.48;3.42;;;;;;;9.56;100.00;99929.84;5012794;28;20200;-41
2024/01/24 04:14:50;;;;;;;18.25;4.00;;;;;;;9.52;100.00;99933.59;5011378;28;20224;-41
2024/01/24 04:17:16;;;;;;;15.40;3.42;;;;;;;9.51;100.00;99941.69;5012791;28;20169;-41
2024/01/24 04:19:41;;;;;;;23.23;3.92;;;;;;;9.49;100.00;99896.31;5012718;28;20195;-43
2024/01/24 04:22:08;;;;;;;19.63;4.10;;;;;;;9.45;100.00;99919.66;5012719;28;20223;-39
2024/01/24 04:24:34;;;;;;;20.48;4.43;;;;;;;9.59;100.00;99916.31;5012826;28;20648;-41
2024/01/24 04:26:59;;;;;;;27.05;5.35;;;;;;;9.46;100.00;99909.81;5012680;28;20189;-42
2024/01/24 04:29:25;;;;;;;18.65;3.58;;;;;;;9.47;100.00;99899.06;5012540;28;20222;-40
2024/01/24 04:31:50;;;;;;;20.10;3.97;;;;;;;9.49;100.00;99907.88;5012603;28;20256;-41
2024/01/24 04:34:19;;;;;;;21.10;3.90;;;;;;;9.54;100.00;99899.63;5012408;28;20165;-42
2024/01/24 04:36:44;;;;;;;16.05;2.92;;;;;;;9.49;100.00;99891.84;5012446;28;20224;-41
2024/01/24 04:39:10;;;;;;;25.08;4.07;;;;;;;9.47;100.00;99883.03;5012466;28;20635;-43
2024/01/24 04:41:36;;;;;;;18.23;3.13;;;;;;;9.44;100.00;99880.47;5012256;28;20179;-40
2024/01/24 04:44:02;;;;;;;21.65;3.38;;;;;;;9.46;100.00;99880.41;5012299;28;20209;-42
2024/01/24 04:46:28;;;;;;;20.27;3.85;;;;;;;9.50;100.00;99895.38;5012273;28;20200;-41
2024/01/24 04:48:53;;;;;;;24.45;3.88;;;;;;;9.53;100.00;99886.31;5012933;28;20227;-39
2024/01/24 04:51:19;;;;;;;20.30;4.68;;;;;;;9.55;100.00;99879.97;5012045;28;20184;-41
2024/01/24 04:53:44;;;;;;;25.25;4.45;;;;;;;9.62;100.00;99881.41;5012766;28;20179;-42
2024/01/24 04:56:10;;;;;;;31.10;4.07;;;;;;;9.69;100.00;99879.28;5012150;28;20201;-39
2024/01/24 04:58:35;;;;;;;25.27;4.50;;;;;;;9.68;100.00;99880.22;5011330;28;20180;-40
2024/01/24 05:01:01;;;;;;;21.67;4.25;;;;;;;9.65;100.00;99867.88;5012082;28;20192;-41
2024/01/24 05:03:27;;;;;;;31.60;4.22;;;;;;;9.57;100.00;99866.53;5012470;28;20561;-41
2024/01/24 05:05:53;;;;;;;22.30;6.00;;;;;;;9.53;100.00;99876.50;5012251;28;20306;-41
2024/01/24 05:08:18;;;;;;;24.42;4.45;;;;;;;9.51;100.00;99891.78;5011887;28;20181;-40
2024/01/24 05:10:44;;;;;;;24.65;3.88;;;;;;;9.42;100.00;99869.03;5011811;28;20211;-41
2024/01/24 05:13:10;;;;;;;24.02;4.30;;;;;;;9.44;100.00;99866.25;5010759;28;20189;-41
2024/01/24 05:15:36;;;;;;;23.20;3.40;;;;;;;9.53;100.00;99881.84;5012027;28;20204;-42
2024/01/24 05:18:02;;;;;;;23.60;4.32;;;;;;;9.51;100.00;99874.84;5012036;28;20173;-42
2024/01/24 05:20:27;;;;;;;24.52;4.45;;;;;;;9.53;100.00;99852.44;5011995;28;20172;-42
2024/01/24 05:22:53;;;;;;;22.08;4.32;;;;;;;9.53;100.00;99875.63;5011843;28;20172;-43
2024/01/24 05:25:19;;;;;;;23.00;4.72;;;;;;;9.37;100.00;99903.13;5011891;28;20177;-40
2024/01/24 05:27:44;;;;;;;30.27;4.97;;;;;;;9.30;100.00;99901.69;5011687;28;20270;-40
2024/01/24 05:30:10;;;;;;;31.08;5.57;;;;;;;9.36;100.00;99879.13;5010449;28;20223;-43
2024/01/24 05:32:36;;;;;;;29.05;4.22;;;;;;;9.19;100.00;99878.13;5011800;28;20549;-40
2024/01/24 05:35:01;;;;;;;26.92;5.30;;;;;;;9.20;100.00;99895.03;5011335;28;20200;-40
2024/01/24 05:37:27;;;;;;;23.10;5.15;;;;;;;9.15;100.00;99887.25;5011884;28;20183;-41
2024/01/24 05:39:52;;;;;;;32.10;5.50;;;;;;;9.15;100.00;99919.31;5011425;28;20259;-40
2024/01/24 05:42:18;;;;;;;28.33;5.45;;;;;;;9.13;100.00;99913.16;5011626;28;20189;-41
2024/01/24 05:44:44;;;;;;;27.00;4.55;;;;;;;9.14;100.00;99911.34;5011579;28;20255;-41
2024/01/24 05:47:09;;;;;;;22.38;4.75;;;;;;;9.06;100.00;99927.75;5011328;28;20251;-43
2024/01/24 05:49:36;;;;;;;31.05;6.20;;;;;;;9.10;100.00;99905.31;5010041;28;20549;-41
2024/01/24 05:52:04;;;;;;;31.40;5.25;;;;;;;9.08;100.00;99918.72;5011371;28;20212;-38
2024/01/24 05:54:29;;;;;;;22.65;4.72;;;;;;;9.11;100.00;99899.00;5011505;28;20262;-42
2024/01/24 05:56:55;;;;;;;30.27;5.10;;;;;;;9.18;100.00;99918.28;5011492;28;20741;-41
2024/01/24 05:59:20;;;;;;;32.55;5.32;;;;;;;9.08;100.00;99902.69;5011115;28;20234;-42
2024/01/24 06:01:47;;;;;;;36.20;6.60;;;;;;;9.08;100.00;99885.81;5011180;28;20175;-41
2024/01/24 06:04:13;;;;;;;27.45;5.43;;;;;;;9.18;100.00;99910.28;5009968;28;20185;-41
2024/01/24 06:06:39;;;;;;;31.15;4.78;;;;;;;9.16;100.00;99910.38;5011294;28;20220;-40
2024/01/24 06:09:05;;;;;;;27.70;6.15;;;;;;;9.02;100.00;99899.44;5010922;28;20173;-39
2024/01/24 06:11:30;;;;;;;30.08;5.68;;;;;;;8.96;100.00;99897.06;5009777;28;20177;-41
2024/01/24 06:13:56;;;;;;;31.42;6.30;;;;;;;8.97;100.00;99912.16;5011142;28;20196;-39
2024/01/24 06:16:21;;;;;;;26.40;5.55;;;;;;;8.93;100.00;99898.06;5011316;28;20204;-41
2024/01/24 06:18:47;;;;;;;31.65;6.13;;;;;;;8.93;100.00;99860.66;5011251;28;20195;-43
2024/01/24 06:21:13;;;;;;;31.40;6.38;;;;;;;8.87;100.00;99909.03;5011353;28;20177;-41
2024/01/24 06:23:38;;;;;;;32.90;6.30;;;;;;;8.79;100.00;99913.84;5013706;28;20203;-40
2024/01/24 06:26:04;;;;;;;33.67;5.57;;;;;;;8.86;100.00;99928.69;5005062;28;20199;-44
2024/01/24 06:28:30;;;;;;;31.27;5.88;;;;;;;8.79;100.00;99900.50;5006674;28;20200;-45
2024/01/24 06:30:56;;;;;;;38.55;6.05;;;;;;;8.81;100.00;99928.00;5006026;28;20545;-44
2024/01/24 06:33:21;;;;;;;36.03;5.68;;;;;;;8.80;100.00;99929.81;5001809;28;20315;-45
2024/01/24 06:35:47;;;;;;;26.95;5.68;;;;;;;8.89;100.00;99923.19;5004173;28;20586;-46
2024/01/24 06:38:14;;;;;;;30.73;5.60;;;;;;;8.82;100.00;99916.41;5005441;28;20180;-45
2024/01/24 06:40:40;;;;;;;35.08;6.55;;;;;;;8.86;100.00;99904.66;5004049;28;20195;-45
2024/01/24 06:43:06;;;;;;;33.88;5.57;;;;;;;8.76;100.00;99900.66;5006800;28;20950;-44
2024/01/24 06:45:31;;;;;;;27.23;5.07;;;;;;;8.73;100.00;99914.16;5005324;28;20196;-44
2024/01/24 06:47:57;;;;;;;25.02;5.28;;;;;;;8.75;100.00;99920.31;5004341;28;20181;-43
2024/01/24 06:50:24;;;;;;;37.45;6.38;;;;;;;8.65;100.00;99910.00;5003474;28;20191;-44
2024/01/24 06:52:50;;;;;;;29.63;6.07;;;;;;;8.71;100.00;99929.38;5000063;28;20307;-44
2024/01/24 06:55:17;;;;;;;26.42;5.45;;;;;;;8.72;100.00;99920.41;5002075;28;20753;-44
2024/01/24 06:57:42;;;;;;;21.95;5.85;;;;;;;8.70;100.00;99916.94;5003945;28;20189;-45
2024/01/24 07:00:09;;;;;;;37.53;6.50;;;;;;;8.73;100.00;99911.50;5001200;28;20184;-45
2024/01/24 07:02:36;;;;;;;35.85;5.72;;;;;;;8.64;100.00;99926.13;5001738;28;20537;-45
2024/01/24 07:05:03;;;;;;;34.22;6.32;;;;;;;8.60;100.00;99917.38;5002843;28;20211;-46
2024/01/24 07:07:29;;;;;;;30.75;5.35;;;;;;;8.63;99.89;99922.56;5002382;28;20188;-46
2024/01/24 07:09:54;;;;;;;35.03;5.75;;;;;;;8.61;99.71;99916.41;5002849;28;20177;-44
2024/01/24 07:12:20;;;;;;;41.45;6.00;;;;;;;8.61;99.46;99907.53;5001855;28;20300;-46
2024/01/24 07:14:48;;;;;;;32.88;6.13;;;;;;;8.54;99.38;99896.28;5006611;28;20201;-45
2024/01/24 07:17:13;;;;;;;27.98;5.38;;;;;;;8.56;99.29;99923.78;5002837;28;20559;-45
2024/01/24 07:19:39;;;;;;;26.17;5.72;;;;;;;8.51;99.43;99915.13;5005818;28;20184;-43
2024/01/24 07:22:04;;;;;;;32.15;5.90;;;;;;;8.57;99.17;99903.28;5007407;28;20284;-45
2024/01/24 07:24:31;;;;;;;39.97;6.93;;;;;;;8.54;99.03;99917.63;5005816;28;20185;-45
2024/01/24 07:26:57;;;;;;;34.92;6.35;;;;;;;8.52;98.81;99951.53;5003256;28;20537;-43
2024/01/24 07:29:23;;;;;;;37.35;5.63;;;;;;;8.55;98.90;99940.75;5002899;28;20203;-44
2024/01/24 07:31:49;;;;;;;36.45;6.47;;;;;;;8.56;98.68;99942.47;4999290;28;20184;-43
2024/01/24 07:34:15;;;;;;;29.45;6.70;;;;;;;8.54;98.91;99948.81;4996451;28;20647;-45
2024/01/24 07:36:41;;;;;;;28.05;5.30;;;;;;;8.64;98.72;99945.66;5001972;28;20304;-45
2024/01/24 07:39:06;;;;;;;28.90;5.47;;;;;;;8.66;98.38;99943.81;4999292;28;20271;-46
2024/01/24 07:41:32;;;;;;;34.72;6.65;;;;;;;8.61;98.46;99955.59;5001374;28;20180;-46
2024/01/24 07:43:59;;;;;;;30.40;5.63;;;;;;;8.54;98.67;99959.50;5000999;28;20180;-45
2024/01/24 07:46:29;;;;;;;29.80;6.65;;;;;;;8.55;99.34;99962.09;5000385;28;20223;-46
2024/01/24 07:48:55;;;;;;;38.10;6.22;;;;;;;8.53;99.34;99974.66;5001572;28;20169;-46
2024/01/24 07:51:20;;;;;;;30.23;6.20;;;;;;;8.49;99.56;99965.03;5001217;28;20200;-45
2024/01/24 07:53:47;;;;;;;37.25;7.35;;;;;;;8.42;99.75;99964.44;5003065;28;20196;-45
2024/01/24 07:56:13;;;;;;;37.97;7.40;;;;;;;8.37;99.97;99976.19;5003579;28;20198;-46
2024/01/24 07:58:40;;;;;;;44.50;6.38;;;;;;;8.42;100.00;99964.44;4998829;28;20240;-44
2024/01/24 08:01:07;;;;;;;40.13;6.68;;;;;;;8.54;99.96;99975.50;4999917;28;20180;-45
2024/01/24 08:03:33;;;;;;;38.53;6.95;;;;;;;8.46;100.00;99994.50;5001095;28;20208;-44
2024/01/24 08:05:58;;;;;;;33.92;6.70;;;;;;;8.45;100.00;100001.66;4996925;28;20213;-46
2024/01/24 08:08:24;;;;;;;39.30;7.25;;;;;;;8.43;100.00;100000.84;5007105;28;20188;-45
2024/01/24 08:10:49;;;;;;;32.45;6.57;;;;;;;8.34;100.00;99997.69;5000344;28;20193;-46
2024/01/24 08:13:15;;;;;;;36.20;7.32;;;;;;;8.31;100.00;99996.03;5002084;28;20227;-45
2024/01/24 08:15:40;;;;;;;35.58;7.22;;;;;;;8.36;100.00;99990.50;5000432;28;20221;-44
2024/01/24 08:18:07;;;;;;;32.78;6.05;;;;;;;8.34;100.00;99998.56;5002868;28;20287;-46
2024/01/24 08:20:34;;;;;;;33.85;6.22;;;;;;;8.36;100.00;100002.03;5005644;28;20267;-46
2024/01/24 08:23:00;;;;;;;33.33;6.03;;;;;;;8.35;100.00;100002.09;5000721;28;20173;-46
2024/01/24 08:25:26;;;;;;;39.80;6.75;;;;;;;8.37;100.00;100006.41;5002322;28;20193;-45
2024/01/24 08:27:53;;;;;;;32.90;6.05;;;;;;;8.35;100.00;100018.09;5002391;28;20651;-45
2024/01/24 08:30:19;;;;;;;40.67;7.75;;;;;;;8.37;100.00;100016.22;4999302;28;20188;-45
2024/01/24 08:32:45;;;;;;;35.10;7.60;;;;;;;8.30;100.00;100025.44;5000230;28;20193;-45
2024/01/24 08:35:10;;;;;;;46.65;7.78;;;;;;;8.30;100.00;100025.44;5002771;28;20223;-44
2024/01/24 08:37:36;;;;;;;38.88;8.00;;;;;;;8.27;100.00;100041.59;4997533;28;20335;-45
2024/01/24 08:40:02;;;;;;;31.95;7.05;;;;;;;8.22;100.00;100044.41;5000269;28;20287;-45
2024/01/24 08:42:28;;;;;;;41.10;7.55;;;;;;;8.29;100.00;100024.56;4997619;28;20189;-45
2024/01/24 08:44:54;;;;;;;43.10;7.28;;;;;;;8.24;100.00;100016.78;5009087;28;20172;-41
2024/01/24 08:47:19;;;;;;;31.67;6.13;;;;;;;8.17;100.00;100019.75;5009567;28;20172;-40
2024/01/24 08:56:09;;;;;;;43.08;6.90;;;;;;;8.17;100.00;100043.75;5025306;28;20772;-46
2024/01/24 08:58:36;;;;;;;37.58;6.38;;;;;;;8.17;100.00;100055.28;5005887;28;20180;-45
2024/01/24 09:01:02;;;;;;;39.50;8.43;;;;;;;8.23;100.00;100009.69;5023915;28;20614;-45
2024/01/24 09:03:27;;;;;;;46.47;8.10;;;;;;;8.29;99.56;100053.03;5024296;28;20333;-47
2024/01/24 09:05:53;;;;;;;46.85;8.43;;;;;;;8.21;99.36;100032.88;5023335;28;20677;-45
2024/01/24 09:08:18;;;;;;;42.80;8.90;;;;;;;8.27;99.31;100065.59;5023174;28;20223;-45
2024/01/24 09:10:44;;;;;;;42.63;7.22;;;;;;;8.21;98.88;100056.03;5023099;28;20230;-48
2024/01/24 09:13:09;;;;;;;42.20;7.97;;;;;;;8.22;98.79;100033.75;5022554;28;20172;-45
2024/01/24 09:15:35;;;;;;;35.38;7.43;;;;;;;8.24;98.43;100063.91;5002848;28;20635;-46
2024/01/24 09:18:00;;;;;;;45.75;7.65;;;;;;;8.21;98.51;100046.22;5023304;28;20618;-46
2024/01/24 09:20:26;;;;;;;48.72;8.18;;;;;;;8.20;98.32;100044.50;5022811;28;20184;-47
2024/01/24 09:22:51;;;;;;;44.13;9.23;;;;;;;8.14;98.30;100054.56;5023051;28;20179;-46
2024/01/24 09:25:18;;;;;;;44.45;7.75;;;;;;;8.13;98.42;100052.81;5022459;28;20242;-45
2024/01/24 09:27:45;;;;;;;39.28;7.57;;;;;;;8.08;98.78;100046.81;5020975;28;20203;-45
2024/01/24 09:30:11;;;;;;;41.33;8.43;;;;;;;8.02;99.15;100093.25;5023076;28;20195;-46
2024/01/24 09:32:36;;;;;;;48.13;8.10;;;;;;;7.97;99.57;100074.78;5023678;28;20188;-44
2024/01/24 09:35:02;;;;;;;48.05;8.82;;;;;;;7.88;100.00;100059.13;5025895;28;20606;-45
2024/01/24 09:37:27;;;;;;;47.10;9.20;;;;;;;7.83;100.00;100058.47;5010070;28;20218;-48
2024/01/24 09:39:53;;;;;;;45.45;9.40;;;;;;;7.80;100.00;100088.75;5026666;28;20203;-44
2024/01/24 09:42:25;;;;;;;53.95;9.55;;;;;;;7.81;100.00;100047.84;5027430;28;20183;-44
2024/01/24 09:44:51;;;;;;;43.25;7.97;;;;;;;7.92;100.00;100075.91;5027223;28;20170;-45
2024/01/24 09:47:19;;;;;;;42.47;8.10;;;;;;;7.87;100.00;100072.53;5027397;28;20353;-45
2024/01/24 09:49:46;;;;;;;40.15;7.65;;;;;;;7.94;100.00;100072.25;5030021;28;20167;-45
2024/01/24 09:52:24;;;;;;;48.38;6.88;;;;;;;7.90;100.00;100083.94;5027197;28;20542;-44
2024/01/24 09:55:00;;;;;;;53.15;8.38;;;;;;;7.89;100.00;100095.53;5026873;28;20199;-44
2024/01/24 09:57:27;;;;;;;50.55;9.00;;;;;;;7.86;100.00;100087.66;5030528;28;20270;-44
2024/01/24 09:59:53;;;;;;;49.33;8.95;;;;;;;7.94;100.00;100074.91;5031388;28;20750;-46
2024/01/24 10:02:19;;;;;;;38.63;6.53;;;;;;;7.93;100.00;100069.63;5015082;28;20202;-45
2024/01/24 10:04:44;;;;;;;49.72;8.95;;;;;;;7.87;100.00;100081.41;5032972;28;20196;-46
2024/01/24 10:07:10;;;;;;;44.50;7.88;;;;;;;7.84;100.00;100069.03;5031136;28;20234;-45
2024/01/24 10:09:37;;;;;;;45.85;7.47;;;;;;;7.92;100.00;100078.56;5031230;28;20207;-47
2024/01/24 10:12:03;;;;;;;50.33;8.90;;;;;;;7.88;100.00;100082.28;5030997;28;20577;-47
2024/01/24 10:14:29;;;;;;;44.65;8.10;;;;;;;7.88;100.00;100080.47;5032271;28;20183;-45
2024/01/24 10:16:55;;;;;;;56.88;9.55;;;;;;;7.93;100.00;100081.16;5032440;28;20245;-45
2024/01/24 10:19:24;;;;;;;45.08;9.07;;;;;;;7.97;100.00;100087.25;5031890;28;20677;-46
2024/01/24 10:21:51;;;;;;;37.90;7.45;;;;;;;7.87;100.00;100096.53;5031318;28;20180;-46
2024/01/24 10:24:16;;;;;;;58.65;9.75;;;;;;;7.82;100.00;100094.03;5033272;28;20214;-46
2024/01/24 10:26:46;;;;;;;39.50;7.78;;;;;;;7.86;100.00;100119.66;5031673;28;20290;-45
2024/01/24 10:29:12;;;;;;;38.35;7.28;;;;;;;7.74;100.00;100120.13;5032225;28;20622;-45
2024/01/24 10:31:37;;;;;;;52.90;9.23;;;;;;;7.74;100.00;100130.78;5031987;28;20176;-46
2024/01/24 10:34:03;;;;;;;40.17;7.68;;;;;;;7.74;100.00;100125.44;5033710;28;20190;-47
2024/01/24 10:36:30;;;;;;;46.65;8.50;;;;;;;7.73;100.00;100116.59;5030178;28;20204;-46
2024/01/24 10:39:03;;;;;;;42.58;8.93;;;;;;;7.56;100.00;100116.34;5013325;28;20195;-47
2024/01/24 10:41:30;;;;;;;49.25;8.18;;;;;;;7.41;100.00;100157.75;5030271;28;20175;-44
2024/01/24 10:44:01;;;;;;;35.72;7.82;;;;;;;7.26;100.00;100140.56;5032834;28;20188;-48
2024/01/24 10:46:27;;;;;;;58.22;9.43;;;;;;;7.28;100.00;100151.13;5030628;28;20258;-46
2024/01/24 10:48:54;;;;;;;50.33;9.27;;;;;;;7.14;100.00;100155.16;5029395;28;20717;-48
2024/01/24 10:51:19;;;;;;;46.70;7.95;;;;;;;7.08;100.00;100154.50;5030218;28;20184;-46
2024/01/24 10:53:46;;;;;;;45.38;7.95;;;;;;;6.96;100.00;100151.34;5030132;28;20196;-48
2024/01/24 10:56:15;;;;;;;45.22;7.28;;;;;;;6.95;100.00;100176.25;5030399;28;20645;-48
2024/01/24 10:58:42;;;;;;;42.42;7.75;;;;;;;6.99;100.00;100151.22;5029747;28;20649;-47
2024/01/24 11:01:08;;;;;;;52.53;8.65;;;;;;;6.95;100.00;100160.28;5011304;28;20185;-45
2024/01/24 11:03:34;;;;;;;49.42;8.02;;;;;;;6.99;100.00;100207.16;5028649;28;20641;-46
2024/01/24 11:06:10;;;;;;;51.92;8.80;;;;;;;6.88;100.00;100153.38;5031259;28;20342;-44
2024/01/24 11:08:48;;;;;;;47.65;7.72;;;;;;;6.94;100.00;100186.94;5029027;28;20676;-47
2024/01/24 11:11:17;;;;;;;51.05;8.48;;;;;;;6.95;100.00;100186.91;5029115;28;20315;-47
2024/01/24 11:13:43;;;;;;;42.58;8.00;;;;;;;6.93;100.00;100178.09;5032367;28;20199;-46
2024/01/24 11:16:31;;;;;;;51.97;8.65;;;;;;;6.89;100.00;100203.09;5029574;28;20207;-46
2024/01/24 11:18:59;;;;;;;53.58;8.55;;;;;;;6.83;100.00;100197.09;5029333;28;20229;-45
2024/01/24 11:21:27;;;;;;;53.35;8.75;;;;;;;6.91;100.00;100197.69;5029959;28;20837;-46
2024/01/24 11:23:53;;;;;;;48.92;7.65;;;;;;;6.92;100.00;100194.13;5030020;28;20183;-47
2024/01/24 11:26:18;;;;;;;43.67;7.97;;;;;;;6.88;100.00;100133.88;5029664;28;20223;-45